sensor_id;sensor_type;location;lat;lon;timestamp;pressure;altitude;pressure_sealevel;temperature;humidity
54172;BME280;40076;52.354;4.970;2022-12-07T00:01:10;101887.59;;;6.48;100.00
54172;BME280;40076;52.354;4.970;2022-12-07T00:03:38;101890.78;;;6.50;100.00
54172;BME280;40076;52.354;4.970;2022-12-07T00:06:05;101891.59;;;6.50;100.00
54172;BME280;40076;52.354;4.970;2022-12-07T00:08:32;101892.41;;;6.51;100.00
54172;BME280;40076;52.354;4.970;2022-12-07T00:11:05;101889.19;;;6.49;100.00
54172;BME280;40076;52.354;4.970;2022-12-07T00:13:32;101877.66;;;6.48;100.00
54172;BME280;40076;52.354;4.970;2022-12-07T00:16:18;101887.28;;;6.44;100.00
54172;BME280;40076;52.354;4.970;2022-12-07T00:18:44;101879.25;;;6.44;100.00
54172;BME280;40076;52.354;4.970;2022-12-07T00:21:47;101871.19;;;6.44;100.00
54172;BME280;40076;52.354;4.970;2022-12-07T00:24:06;101865.56;;;6.46;100.00
54172;BME280;40076;52.354;4.970;2022-12-07T00:26:36;101865.56;;;6.46;100.00
54172;BME280;40076;52.354;4.970;2022-12-07T00:29:05;101873.34;;;6.47;100.00
54172;BME280;40076;52.354;4.970;2022-12-07T00:31:33;101868.78;;;6.48;100.00
54172;BME280;40076;52.354;4.970;2022-12-07T00:34:00;101868.78;;;6.48;100.00
54172;BME280;40076;52.354;4.970;2022-12-07T00:36:26;101874.16;;;6.48;100.00
54172;BME280;40076;52.354;4.970;2022-12-07T00:38:52;101871.47;;;6.48;100.00
54172;BME280;40076;52.354;4.970;2022-12-07T00:41:20;101862.63;;;6.47;100.00
54172;BME280;40076;52.354;4.970;2022-12-07T00:43:47;101857.50;;;6.46;100.00
54172;BME280;40076;52.354;4.970;2022-12-07T00:46:14;101852.41;;;6.44;100.00
54172;BME280;40076;52.354;4.970;2022-12-07T00:48:39;101858.56;;;6.45;100.00
54172;BME280;40076;52.354;4.970;2022-12-07T00:51:06;101860.44;;;6.44;100.00
54172;BME280;40076;52.354;4.970;2022-12-07T00:53:34;101851.03;;;6.42;100.00
54172;BME280;40076;52.354;4.970;2022-12-07T00:56:12;101846.47;;;6.42;100.00
54172;BME280;40076;52.354;4.970;2022-12-07T00:58:38;101841.91;;;6.43;100.00
54172;BME280;40076;52.354;4.970;2022-12-07T01:01:04;101844.59;;;6.43;100.00
54172;BME280;40076;52.354;4.970;2022-12-07T01:03:30;101845.41;;;6.43;100.00
54172;BME280;40076;52.354;4.970;2022-12-07T01:05:56;101847.53;;;6.41;100.00
54172;BME280;40076;52.354;4.970;2022-12-07T01:08:23;101844.06;;;6.41;100.00
54172;BME280;40076;52.354;4.970;2022-12-07T01:10:49;101851.03;;;6.42;100.00
54172;BME280;40076;52.354;4.970;2022-12-07T01:13:14;101856.41;;;6.42;100.00
54172;BME280;40076;52.354;4.970;2022-12-07T01:15:41;101870.63;;;6.42;100.00
54172;BME280;40076;52.354;4.970;2022-12-07T01:18:07;101873.06;;;6.39;100.00
54172;BME280;40076;52.354;4.970;2022-12-07T01:20:33;101869.03;;;6.36;100.00
54172;BME280;40076;52.354;4.970;2022-12-07T01:22:58;101870.91;;;6.36;100.00
54172;BME280;40076;52.354;4.970;2022-12-07T01:25:24;101863.41;;;6.38;100.00
54172;BME280;40076;52.354;4.970;2022-12-07T01:27:49;101866.88;;;6.38;100.00
54172;BME280;40076;52.354;4.970;2022-12-07T01:30:14;101869.56;;;6.38;100.00
54172;BME280;40076;52.354;4.970;2022-12-07T01:32:40;101861.25;;;6.40;100.00
54172;BME280;40076;52.354;4.970;2022-12-07T01:35:05;101861.78;;;6.42;100.00
54172;BME280;40076;52.354;4.970;2022-12-07T01:37:35;101861.78;;;6.42;100.00
54172;BME280;40076;52.354;4.970;2022-12-07T01:40:01;101856.97;;;6.44;100.00
54172;BME280;40076;52.354;4.970;2022-12-07T01:42:28;101862.31;;;6.44;100.00
54172;BME280;40076;52.354;4.970;2022-12-07T01:47:51;101860.44;;;6.44;100.00
54172;BME280;40076;52.354;4.970;2022-12-07T01:50:17;101858.06;;;6.48;100.00
54172;BME280;40076;52.354;4.970;2022-12-07T01:52:43;101859.63;;;6.44;100.00
54172;BME280;40076;52.354;4.970;2022-12-07T01:55:12;101859.63;;;6.44;100.00
54172;BME280;40076;52.354;4.970;2022-12-07T01:57:47;101862.06;;;6.45;100.00
54172;BME280;40076;52.354;4.970;2022-12-07T02:00:14;101853.19;;;6.45;100.00
54172;BME280;40076;52.354;4.970;2022-12-07T02:05:46;101841.66;;;6.44;100.00
54172;BME280;40076;52.354;4.970;2022-12-07T02:08:13;101842.72;;;6.43;100.00
54172;BME280;40076;52.354;4.970;2022-12-07T02:10:40;101847.03;;;6.44;100.00
54172;BME280;40076;52.354;4.970;2022-12-07T02:13:10;101837.09;;;6.45;100.00
54172;BME280;40076;52.354;4.970;2022-12-07T02:29:13;101835.19;;;6.35;100.00
54172;BME280;40076;52.354;4.970;2022-12-07T02:31:46;101831.19;;;6.33;100.00
54172;BME280;40076;52.354;4.970;2022-12-07T02:34:47;101833.88;;;6.33;100.00
54172;BME280;40076;52.354;4.970;2022-12-07T02:40:07;101818.53;;;6.33;100.00
54172;BME280;40076;52.354;4.970;2022-12-07T02:42:38;101822.03;;;6.34;100.00
54172;BME280;40076;52.354;4.970;2022-12-07T02:45:06;101819.09;;;6.35;100.00
54172;BME280;40076;52.354;4.970;2022-12-07T02:47:33;101820.69;;;6.36;100.00
54172;BME280;40076;52.354;4.970;2022-12-07T02:49:59;101813.72;;;6.35;100.00
54172;BME280;40076;52.354;4.970;2022-12-07T02:52:25;101817.22;;;6.36;100.00
54172;BME280;40076;52.354;4.970;2022-12-07T02:54:50;101811.84;;;6.36;100.00
54172;BME280;40076;52.354;4.970;2022-12-07T02:57:27;101813.16;;;6.33;100.00
54172;BME280;40076;52.354;4.970;2022-12-07T03:08:48;101826.34;;;6.30;100.00
54172;BME280;40076;52.354;4.970;2022-12-07T03:11:21;101839.19;;;6.28;100.00
54172;BME280;40076;52.354;4.970;2022-12-07T03:13:55;101829.81;;;6.25;100.00
54172;BME280;40076;52.354;4.970;2022-12-07T03:16:31;101831.16;;;6.23;100.00
54172;BME280;40076;52.354;4.970;2022-12-07T03:19:07;101842.94;;;6.22;100.00
54172;BME280;40076;52.354;4.970;2022-12-07T03:21:44;101831.66;;;6.19;100.00
54172;BME280;40076;52.354;4.970;2022-12-07T03:24:17;101831.66;;;6.19;100.00
54172;BME280;40076;52.354;4.970;2022-12-07T03:26:48;101832.22;;;6.22;100.00
54172;BME280;40076;52.354;4.970;2022-12-07T03:29:22;101831.97;;;6.23;100.00
54172;BME280;40076;52.354;4.970;2022-12-07T03:31:56;101822.84;;;6.24;100.00
54172;BME280;40076;52.354;4.970;2022-12-07T03:34:29;101820.97;;;6.25;100.00
54172;BME280;40076;52.354;4.970;2022-12-07T03:36:57;101807.81;;;6.28;100.00
54172;BME280;40076;52.354;4.970;2022-12-07T03:39:39;101813.16;;;6.23;100.00
54172;BME280;40076;52.354;4.970;2022-12-07T03:42:07;101812.38;;;6.23;100.00
54172;BME280;40076;52.354;4.970;2022-12-07T03:44:35;101815.84;;;6.23;100.00
54172;BME280;40076;52.354;4.970;2022-12-07T03:49:53;101795.19;;;6.24;100.00
54172;BME280;40076;52.354;4.970;2022-12-07T03:52:40;101796.00;;;6.24;100.00
54172;BME280;40076;52.354;4.970;2022-12-07T03:57:42;101833.84;;;6.23;100.00
54172;BME280;40076;52.354;4.970;2022-12-07T04:00:09;101826.84;;;6.16;100.00
54172;BME280;40076;52.354;4.970;2022-12-07T04:02:35;101816.91;;;6.17;100.00
54172;BME280;40076;52.354;4.970;2022-12-07T04:05:01;101804.31;;;6.17;100.00
54172;BME280;40076;52.354;4.970;2022-12-07T04:07:26;101807.00;;;6.17;100.00
54172;BME280;40076;52.354;4.970;2022-12-07T04:09:52;101797.31;;;6.16;100.00
54172;BME280;40076;52.354;4.970;2022-12-07T04:12:20;101803.22;;;6.18;100.00
54172;BME280;40076;52.354;4.970;2022-12-07T04:14:45;101792.78;;;6.17;100.00
54172;BME280;40076;52.354;4.970;2022-12-07T04:17:10;101791.66;;;6.18;100.00
54172;BME280;40076;52.354;4.970;2022-12-07T04:19:36;101794.34;;;6.18;100.00
54172;BME280;40076;52.354;4.970;2022-12-07T04:22:02;101800.00;;;6.16;100.00
54172;BME280;40076;52.354;4.970;2022-12-07T04:24:28;101803.75;;;6.15;100.00
54172;BME280;40076;52.354;4.970;2022-12-07T04:26:53;101804.31;;;6.17;100.00
54172;BME280;40076;52.354;4.970;2022-12-07T04:29:19;101806.19;;;6.17;100.00
54172;BME280;40076;52.354;4.970;2022-12-07T04:31:45;101803.75;;;6.15;100.00
54172;BME280;40076;52.354;4.970;2022-12-07T04:34:11;101801.06;;;6.15;100.00
54172;BME280;40076;52.354;4.970;2022-12-07T04:36:37;101797.59;;;6.15;100.00
54172;BME280;40076;52.354;4.970;2022-12-07T04:39:03;101798.41;;;6.15;100.00
54172;BME280;40076;52.354;4.970;2022-12-07T04:41:29;101793.28;;;6.14;100.00
54172;BME280;40076;52.354;4.970;2022-12-07T04:44:00;101794.34;;;6.13;100.00
54172;BME280;40076;52.354;4.970;2022-12-07T04:46:27;101794.09;;;6.14;100.00
54172;BME280;40076;52.354;4.970;2022-12-07T04:48:53;101785.50;;;6.12;100.00
54172;BME280;40076;52.354;4.970;2022-12-07T04:51:25;101790.31;;;6.10;100.00
54172;BME280;40076;52.354;4.970;2022-12-07T04:53:51;101783.88;;;6.11;100.00
54172;BME280;40076;52.354;4.970;2022-12-07T04:56:16;101780.38;;;6.11;100.00
54172;BME280;40076;52.354;4.970;2022-12-07T04:58:43;101787.63;;;6.10;100.00
54172;BME280;40076;52.354;4.970;2022-12-07T05:01:09;101786.84;;;6.10;100.00
54172;BME280;40076;52.354;4.970;2022-12-07T05:03:35;101780.94;;;6.08;100.00
54172;BME280;40076;52.354;4.970;2022-12-07T05:06:01;101786.56;;;6.06;100.00
54172;BME280;40076;52.354;4.970;2022-12-07T05:08:26;101779.31;;;6.07;100.00
54172;BME280;40076;52.354;4.970;2022-12-07T05:10:51;101775.03;;;6.06;100.00
54172;BME280;40076;52.354;4.970;2022-12-07T05:13:17;101777.44;;;6.07;100.00
54172;BME280;40076;52.354;4.970;2022-12-07T05:15:42;101773.16;;;6.06;100.00
54172;BME280;40076;52.354;4.970;2022-12-07T05:18:09;101774.22;;;6.05;100.00
54172;BME280;40076;52.354;4.970;2022-12-07T05:20:35;101777.72;;;6.06;100.00
54172;BME280;40076;52.354;4.970;2022-12-07T05:23:00;101783.88;;;6.06;100.00
54172;BME280;40076;52.354;4.970;2022-12-07T05:25:26;101790.88;;;6.07;100.00
54172;BME280;40076;52.354;4.970;2022-12-07T05:27:51;101792.47;;;6.08;100.00
54172;BME280;40076;52.354;4.970;2022-12-07T05:30:17;101784.44;;;6.08;100.00
54172;BME280;40076;52.354;4.970;2022-12-07T05:32:42;101788.69;;;6.04;100.00
54172;BME280;40076;52.354;4.970;2022-12-07T05:35:08;101788.19;;;6.02;100.00
54172;BME280;40076;52.354;4.970;2022-12-07T05:37:33;101782.00;;;6.02;100.00
54172;BME280;40076;52.354;4.970;2022-12-07T05:39:58;101775.84;;;6.01;100.00
54172;BME280;40076;52.354;4.970;2022-12-07T05:42:24;101782.00;;;6.02;100.00
54172;BME280;40076;52.354;4.970;2022-12-07T05:44:49;101780.38;;;6.01;100.00
54172;BME280;40076;52.354;4.970;2022-12-07T05:47:15;101773.16;;;6.01;100.00
54172;BME280;40076;52.354;4.970;2022-12-07T05:49:41;101764.28;;;6.01;100.00
54172;BME280;40076;52.354;4.970;2022-12-07T05:52:06;101774.22;;;6.00;100.00
54172;BME280;40076;52.354;4.970;2022-12-07T05:54:32;101773.41;;;6.00;100.00
54172;BME280;40076;52.354;4.970;2022-12-07T05:56:58;101775.28;;;5.99;100.00
54172;BME280;40076;52.354;4.970;2022-12-07T05:59:23;101771.78;;;5.99;100.00
54172;BME280;40076;52.354;4.970;2022-12-07T06:04:16;101764.25;;;5.96;100.00
54172;BME280;40076;52.354;4.970;2022-12-07T06:06:41;101761.56;;;5.96;100.00
54172;BME280;40076;52.354;4.970;2022-12-07T06:09:06;101771.50;;;5.95;100.00
54172;BME280;40076;52.354;4.970;2022-12-07T06:11:32;101769.63;;;5.96;100.00
54172;BME280;40076;52.354;4.970;2022-12-07T06:14:16;101777.16;;;5.94;100.00
54172;BME280;40076;52.354;4.970;2022-12-07T06:16:41;101776.59;;;5.92;100.00
54172;BME280;40076;52.354;4.970;2022-12-07T06:19:07;101787.06;;;5.93;100.00
54172;BME280;40076;52.354;4.970;2022-12-07T06:21:32;101787.84;;;5.89;100.00
54172;BME280;40076;52.354;4.970;2022-12-07T06:23:57;101779.25;;;5.87;100.00
54172;BME280;40076;52.354;4.970;2022-12-07T06:26:23;101779.53;;;5.90;100.00
54172;BME280;40076;52.354;4.970;2022-12-07T06:28:48;101777.66;;;5.91;100.00
54172;BME280;40076;52.354;4.970;2022-12-07T06:31:13;101772.31;;;5.91;100.00
54172;BME280;40076;52.354;4.970;2022-12-07T06:33:39;101766.38;;;5.89;100.00
54172;BME280;40076;52.354;4.970;2022-12-07T06:36:05;101759.97;;;5.90;100.00
54172;BME280;40076;52.354;4.970;2022-12-07T06:38:30;101759.16;;;5.89;100.00
54172;BME280;40076;52.354;4.970;2022-12-07T06:40:55;101753.78;;;5.89;100.00
54172;BME280;40076;52.354;4.970;2022-12-07T06:43:21;101765.06;;;5.91;100.00
54172;BME280;40076;52.354;4.970;2022-12-07T06:45:46;101769.38;;;5.92;100.00
54172;BME280;40076;52.354;4.970;2022-12-07T06:48:11;101765.88;;;5.92;100.00
54172;BME280;40076;52.354;4.970;2022-12-07T06:50:37;101775.00;;;5.91;100.00
54172;BME280;40076;52.354;4.970;2022-12-07T06:53:02;101780.09;;;5.92;100.00
54172;BME280;40076;52.354;4.970;2022-12-07T06:55:27;101776.59;;;5.92;100.00
54172;BME280;40076;52.354;4.970;2022-12-07T06:57:53;101775.78;;;5.91;100.00
54172;BME280;40076;52.354;4.970;2022-12-07T07:00:18;101781.41;;;5.90;100.00
54172;BME280;40076;52.354;4.970;2022-12-07T07:02:44;101771.75;;;5.89;100.00
54172;BME280;40076;52.354;4.970;2022-12-07T07:05:09;101774.69;;;5.87;100.00
54172;BME280;40076;52.354;4.970;2022-12-07T07:07:34;101769.34;;;5.87;100.00
54172;BME280;40076;52.354;4.970;2022-12-07T07:09:59;101768.53;;;5.87;100.00
54172;BME280;40076;52.354;4.970;2022-12-07T07:12:25;101773.09;;;5.86;100.00
54172;BME280;40076;52.354;4.970;2022-12-07T07:14:50;101768.78;;;5.85;100.00
54172;BME280;40076;52.354;4.970;2022-12-07T07:17:15;101773.34;;;5.85;100.00
54172;BME280;40076;52.354;4.970;2022-12-07T07:19:41;101770.09;;;5.82;100.00
54172;BME280;40076;52.354;4.970;2022-12-07T07:22:06;101770.91;;;5.83;100.00
54172;BME280;40076;52.354;4.970;2022-12-07T07:24:31;101771.97;;;5.82;100.00
54172;BME280;40076;52.354;4.970;2022-12-07T07:26:58;101775.72;;;5.81;100.00
54172;BME280;40076;52.354;4.970;2022-12-07T07:29:23;101775.72;;;5.81;100.00
54172;BME280;40076;52.354;4.970;2022-12-07T07:31:48;101788.31;;;5.80;100.00
54172;BME280;40076;52.354;4.970;2022-12-07T07:34:14;101794.25;;;5.77;100.00
54172;BME280;40076;52.354;4.970;2022-12-07T07:36:39;101808.41;;;5.73;100.00
54172;BME280;40076;52.354;4.970;2022-12-07T07:39:04;101808.41;;;5.73;100.00
54172;BME280;40076;52.354;4.970;2022-12-07T07:41:30;101814.88;;;5.72;100.00
54172;BME280;40076;52.354;4.970;2022-12-07T07:43:55;101805.72;;;5.73;100.00
54172;BME280;40076;52.354;4.970;2022-12-07T07:46:21;101802.53;;;5.71;100.00
54172;BME280;40076;52.354;4.970;2022-12-07T07:48:46;101801.97;;;5.74;100.00
54172;BME280;40076;52.354;4.970;2022-12-07T07:51:19;101790.19;;;5.75;100.00
54172;BME280;40076;52.354;4.970;2022-12-07T07:53:54;101792.31;;;5.73;100.00
54172;BME280;40076;52.354;4.970;2022-12-07T07:56:19;101790.19;;;5.75;100.00
54172;BME280;40076;52.354;4.970;2022-12-07T07:58:44;101790.75;;;5.72;100.00
54172;BME280;40076;52.354;4.970;2022-12-07T08:01:09;101792.31;;;5.73;100.00
54172;BME280;40076;52.354;4.970;2022-12-07T08:03:35;101800.91;;;5.75;100.00
54172;BME280;40076;52.354;4.970;2022-12-07T08:06:02;101805.22;;;5.76;100.00
54172;BME280;40076;52.354;4.970;2022-12-07T08:08:27;101803.34;;;5.76;100.00
54172;BME280;40076;52.354;4.970;2022-12-07T08:10:53;101806.84;;;5.77;100.00
54172;BME280;40076;52.354;4.970;2022-12-07T08:13:18;101811.13;;;5.78;100.00
54172;BME280;40076;52.354;4.970;2022-12-07T08:15:46;101817.31;;;5.78;100.00
54172;BME280;40076;52.354;4.970;2022-12-07T08:18:12;101824.53;;;5.78;100.00
54172;BME280;40076;52.354;4.970;2022-12-07T08:20:39;101816.19;;;5.74;100.00
54172;BME280;40076;52.354;4.970;2022-12-07T08:23:05;101806.28;;;5.75;100.00
54172;BME280;40076;52.354;4.970;2022-12-07T08:25:31;101799.84;;;5.76;100.00
54172;BME280;40076;52.354;4.970;2022-12-07T08:27:57;101799.84;;;5.76;100.00
54172;BME280;40076;52.354;4.970;2022-12-07T08:30:22;101803.34;;;5.76;100.00
54172;BME280;40076;52.354;4.970;2022-12-07T08:32:48;101806.84;;;5.77;100.00
54172;BME280;40076;52.354;4.970;2022-12-07T08:35:15;101802.28;;;5.77;100.00
54172;BME280;40076;52.354;4.970;2022-12-07T08:37:40;101799.84;;;5.76;100.00
54172;BME280;40076;52.354;4.970;2022-12-07T08:40:07;101810.59;;;5.76;100.00
54172;BME280;40076;52.354;4.970;2022-12-07T08:42:33;101807.66;;;5.77;100.00
54172;BME280;40076;52.354;4.970;2022-12-07T08:45:10;101809.53;;;5.77;100.00
54172;BME280;40076;52.354;4.970;2022-12-07T08:48:01;101807.38;;;5.79;100.00
54172;BME280;40076;52.354;4.970;2022-12-07T08:50:24;101808.97;;;5.80;100.00
54172;BME280;40076;52.354;4.970;2022-12-07T08:52:52;101800.94;;;5.80;100.00
54172;BME280;40076;52.354;4.970;2022-12-07T08:55:19;101801.47;;;5.82;100.00
54172;BME280;40076;52.354;4.970;2022-12-07T08:57:44;101796.94;;;5.82;100.00
54172;BME280;40076;52.354;4.970;2022-12-07T09:00:10;101796.94;;;5.82;100.00
54172;BME280;40076;52.354;4.970;2022-12-07T09:02:36;101794.00;;;5.84;100.00
54172;BME280;40076;52.354;4.970;2022-12-07T09:05:01;101791.03;;;5.86;100.00
54172;BME280;40076;52.354;4.970;2022-12-07T09:07:27;101799.66;;;5.88;100.00
54172;BME280;40076;52.354;4.970;2022-12-07T09:09:52;101799.38;;;5.89;100.00
54172;BME280;40076;52.354;4.970;2022-12-07T09:12:18;101794.03;;;5.89;100.00
54172;BME280;40076;52.354;4.970;2022-12-07T09:14:43;101796.44;;;5.91;100.00
54172;BME280;40076;52.354;4.970;2022-12-07T09:17:11;101796.19;;;5.92;100.00
54172;BME280;40076;52.354;4.970;2022-12-07T09:19:37;101795.94;;;5.94;100.00
54172;BME280;40076;52.354;4.970;2022-12-07T09:22:04;101788.41;;;5.96;100.00
54172;BME280;40076;52.354;4.970;2022-12-07T09:24:30;101794.31;;;5.98;100.00
54172;BME280;40076;52.354;4.970;2022-12-07T09:26:56;101792.19;;;6.00;100.00
54172;BME280;40076;52.354;4.970;2022-12-07T09:29:22;101789.25;;;6.01;100.00
54172;BME280;40076;52.354;4.970;2022-12-07T09:31:47;101790.06;;;6.02;100.00
54172;BME280;40076;52.354;4.970;2022-12-07T09:34:12;101789.75;;;6.03;100.00
54172;BME280;40076;52.354;4.970;2022-12-07T09:36:38;101789.75;;;6.03;100.00
54172;BME280;40076;52.354;4.970;2022-12-07T09:39:03;101787.09;;;6.03;100.00
54172;BME280;40076;52.354;4.970;2022-12-07T09:41:30;101795.13;;;6.03;100.00
54172;BME280;40076;52.354;4.970;2022-12-07T09:44:03;101790.88;;;6.02;100.00
54172;BME280;40076;52.354;4.970;2022-12-07T09:46:29;101800.50;;;6.03;100.00
54172;BME280;40076;52.354;4.970;2022-12-07T09:48:57;101799.97;;;6.01;100.00
54172;BME280;40076;52.354;4.970;2022-12-07T09:51:23;101798.09;;;6.02;100.00
54172;BME280;40076;52.354;4.970;2022-12-07T09:53:50;101794.88;;;6.05;100.00
54172;BME280;40076;52.354;4.970;2022-12-07T09:56:17;101789.25;;;6.06;100.00
54172;BME280;40076;52.354;4.970;2022-12-07T09:58:43;101785.50;;;6.07;100.00
54172;BME280;40076;52.354;4.970;2022-12-07T10:01:14;101788.72;;;6.09;100.00
54172;BME280;40076;52.354;4.970;2022-12-07T10:03:50;101789.53;;;6.10;100.00
54172;BME280;40076;52.354;4.970;2022-12-07T10:06:17;101786.56;;;6.11;100.00
54172;BME280;40076;52.354;4.970;2022-12-07T10:08:42;101789.28;;;6.16;100.00
54172;BME280;40076;52.354;4.970;2022-12-07T10:11:08;101786.84;;;6.20;100.00
54172;BME280;40076;52.354;4.970;2022-12-07T10:13:39;101782.59;;;6.24;100.00
54172;BME280;40076;52.354;4.970;2022-12-07T10:16:06;101784.72;;;6.27;100.00
54172;BME280;40076;52.354;4.970;2022-12-07T10:18:34;101780.16;;;6.28;100.00
54172;BME280;40076;52.354;4.970;2022-12-07T10:21:14;101774.53;;;6.29;100.00
54172;BME280;40076;52.354;4.970;2022-12-07T10:23:59;101771.03;;;6.29;100.00
54172;BME280;40076;52.354;4.970;2022-12-07T10:26:40;101775.34;;;6.30;100.00
54172;BME280;40076;52.354;4.970;2022-12-07T10:31:54;101770.50;;;6.32;100.00
54172;BME280;40076;52.354;4.970;2022-12-07T10:34:31;101768.63;;;6.32;100.00
54172;BME280;40076;52.354;4.970;2022-12-07T10:37:26;101762.97;;;6.34;100.00
54172;BME280;40076;52.354;4.970;2022-12-07T10:39:55;101751.72;;;6.32;100.00
54172;BME280;40076;52.354;4.970;2022-12-07T10:42:26;101757.34;;;6.30;100.00
54172;BME280;40076;52.354;4.970;2022-12-07T10:45:17;101753.84;;;6.35;100.00
54172;BME280;40076;52.354;4.970;2022-12-07T10:53:31;101749.84;;;6.37;100.00
54172;BME280;40076;52.354;4.970;2022-12-07T11:01:50;101739.34;;;6.41;100.00
54172;BME280;40076;52.354;4.970;2022-12-07T11:04:30;101729.16;;;6.43;100.00
54172;BME280;40076;52.354;4.970;2022-12-07T11:07:11;101735.06;;;6.45;100.00
54172;BME280;40076;52.354;4.970;2022-12-07T11:15:17;101723.25;;;6.51;100.00
54172;BME280;40076;52.354;4.970;2022-12-07T11:18:06;101723.78;;;6.53;100.00
54172;BME280;40076;52.354;4.970;2022-12-07T11:33:59;101694.78;;;6.70;100.00
54172;BME280;40076;52.354;4.970;2022-12-07T11:36:41;101684.53;;;6.72;100.00
54172;BME280;40076;52.354;4.970;2022-12-07T11:41:46;101688.03;;;6.78;100.00
54172;BME280;40076;52.354;4.970;2022-12-07T11:44:36;101684.53;;;6.82;100.00
54172;BME280;40076;52.354;4.970;2022-12-07T11:47:38;101685.63;;;6.86;100.00
54172;BME280;40076;52.354;4.970;2022-12-07T11:50:45;101693.91;;;6.90;100.00
54172;BME280;40076;52.354;4.970;2022-12-07T11:53:17;101697.94;;;6.87;100.00
54172;BME280;40076;52.354;4.970;2022-12-07T11:55:53;101695.56;;;6.86;100.00
54172;BME280;40076;52.354;4.970;2022-12-07T12:03:40;101681.31;;;6.75;100.00
54172;BME280;40076;52.354;4.970;2022-12-07T12:06:07;101680.25;;;6.76;100.00
54172;BME280;40076;52.354;4.970;2022-12-07T12:09:02;101673.00;;;6.77;100.00
54172;BME280;40076;52.354;4.970;2022-12-07T12:19:26;101651.25;;;6.78;100.00
54172;BME280;40076;52.354;4.970;2022-12-07T12:22:18;101642.63;;;6.81;100.00
54172;BME280;40076;52.354;4.970;2022-12-07T12:24:49;101644.25;;;6.82;100.00
54172;BME280;40076;52.354;4.970;2022-12-07T12:27:33;101646.38;;;6.85;100.00
54172;BME280;40076;52.354;4.970;2022-12-07T12:30:01;101641.53;;;6.87;100.00
54172;BME280;40076;52.354;4.970;2022-12-07T12:32:39;101641.00;;;6.85;100.00
54172;BME280;40076;52.354;4.970;2022-12-07T12:38:31;101637.75;;;6.88;100.00
54172;BME280;40076;52.354;4.970;2022-12-07T12:41:00;101641.53;;;6.92;100.00
54172;BME280;40076;52.354;4.970;2022-12-07T12:43:42;101635.09;;;6.93;100.00
54172;BME280;40076;52.354;4.970;2022-12-07T12:51:42;101635.81;;;7.04;100.00
54172;BME280;40076;52.354;4.970;2022-12-07T12:54:21;101638.81;;;6.97;100.00
54172;BME280;40076;52.354;4.970;2022-12-07T13:00:15;101627.22;;;7.02;100.00
54172;BME280;40076;52.354;4.970;2022-12-07T13:02:50;101631.53;;;7.03;100.00
54172;BME280;40076;52.354;4.970;2022-12-07T13:05:26;101627.53;;;7.01;100.00
54172;BME280;40076;52.354;4.970;2022-12-07T13:07:56;101625.88;;;7.05;100.00
54172;BME280;40076;52.354;4.970;2022-12-07T13:10:30;101624.00;;;7.05;100.00
54172;BME280;40076;52.354;4.970;2022-12-07T13:13:05;101611.63;;;7.04;100.00
54172;BME280;40076;52.354;4.970;2022-12-07T13:15:50;101604.91;;;7.07;100.00
54172;BME280;40076;52.354;4.970;2022-12-07T13:26:12;101592.81;;;7.09;100.00
54172;BME280;40076;52.354;4.970;2022-12-07T13:28:42;101582.06;;;7.09;100.00
54172;BME280;40076;52.354;4.970;2022-12-07T13:31:23;101582.56;;;7.11;100.00
54172;BME280;40076;52.354;4.970;2022-12-07T13:33:51;101568.88;;;7.13;100.00
54172;BME280;40076;52.354;4.970;2022-12-07T13:36:30;101567.00;;;7.13;100.00
54172;BME280;40076;52.354;4.970;2022-12-07T13:41:41;101565.38;;;7.12;100.00
54172;BME280;40076;52.354;4.970;2022-12-07T13:44:13;101554.09;;;7.15;100.00
54172;BME280;40076;52.354;4.970;2022-12-07T13:49:28;101558.66;;;7.15;99.74
54172;BME280;40076;52.354;4.970;2022-12-07T13:52:28;101559.69;;;7.19;100.00
54172;BME280;40076;52.354;4.970;2022-12-07T13:55:01;101555.13;;;7.19;100.00
54172;BME280;40076;52.354;4.970;2022-12-07T13:57:29;101551.88;;;7.22;100.00
54172;BME280;40076;52.354;4.970;2022-12-07T13:59:56;101545.44;;;7.23;100.00
54172;BME280;40076;52.354;4.970;2022-12-07T14:02:26;101542.75;;;7.23;100.00
54172;BME280;40076;52.354;4.970;2022-12-07T14:05:22;101544.06;;;7.26;100.00
54172;BME280;40076;52.354;4.970;2022-12-07T14:07:53;101559.69;;;7.24;99.31
54172;BME280;40076;52.354;4.970;2022-12-07T14:12:56;101553.00;;;7.16;100.00
54172;BME280;40076;52.354;4.970;2022-12-07T14:15:24;101553.81;;;7.12;100.00
54172;BME280;40076;52.354;4.970;2022-12-07T14:17:51;101554.66;;;7.07;100.00
54172;BME280;40076;52.354;4.970;2022-12-07T14:20:34;101556.59;;;7.02;100.00
54172;BME280;40076;52.354;4.970;2022-12-07T14:22:59;101553.63;;;6.98;100.00
54172;BME280;40076;52.354;4.970;2022-12-07T14:25:45;101548.00;;;6.94;100.00
54172;BME280;40076;52.354;4.970;2022-12-07T14:28:25;101536.75;;;6.92;100.00
54172;BME280;40076;52.354;4.970;2022-12-07T14:30:51;101542.66;;;6.89;100.00
54172;BME280;40076;52.354;4.970;2022-12-07T14:33:17;101543.47;;;6.90;100.00
54172;BME280;40076;52.354;4.970;2022-12-07T14:35:43;101525.75;;;6.89;100.00
54172;BME280;40076;52.354;4.970;2022-12-07T14:38:08;101534.88;;;6.88;100.00
54172;BME280;40076;52.354;4.970;2022-12-07T14:40:33;101532.19;;;6.88;100.00
54172;BME280;40076;52.354;4.970;2022-12-07T14:43:13;101529.81;;;6.86;100.00
54172;BME280;40076;52.354;4.970;2022-12-07T14:45:40;101533.25;;;6.87;100.00
54172;BME280;40076;52.354;4.970;2022-12-07T14:48:05;101528.69;;;6.87;100.00
54172;BME280;40076;52.354;4.970;2022-12-07T14:50:36;101526.81;;;6.88;100.00
54172;BME280;40076;52.354;4.970;2022-12-07T14:53:09;101530.31;;;6.88;100.00
54172;BME280;40076;52.354;4.970;2022-12-07T14:55:35;101529.22;;;6.89;100.00
54172;BME280;40076;52.354;4.970;2022-12-07T14:58:01;101527.66;;;6.83;100.00